createdAt,value
2019-05-06T00:00:56.542Z,95.00
2019-05-06T00:03:24.809Z,94.90
2019-05-06T00:05:55.201Z,94.80
2019-05-06T00:08:25.559Z,94.80
2019-05-06T00:10:56.004Z,94.80
2019-05-06T00:13:26.349Z,94.80
2019-05-06T00:15:56.746Z,94.70
2019-05-06T00:18:27.062Z,94.70
2019-05-06T00:20:57.672Z,94.60
2019-05-06T00:23:38.288Z,94.60
2019-05-06T00:26:29.674Z,94.70
2019-05-06T00:29:04.477Z,94.60
2019-05-06T00:31:34.978Z,94.90
2019-05-06T00:34:05.289Z,94.80
2019-05-06T00:36:35.711Z,94.90
2019-05-06T00:39:29.626Z,94.90
2019-05-06T00:42:05.394Z,95.00
2019-05-06T00:44:35.697Z,95.00
2019-05-06T00:47:06.140Z,95.00
2019-05-06T00:49:36.539Z,95.10
2019-05-06T00:52:07.167Z,95.20
2019-05-06T00:54:37.625Z,95.10
2019-05-06T00:57:08.010Z,95.10
2019-05-06T00:59:38.500Z,95.20
2019-05-06T01:02:08.933Z,95.20
2019-05-06T01:04:39.332Z,95.20
2019-05-06T01:07:09.756Z,95.30
2019-05-06T01:09:40.203Z,95.20
2019-05-06T01:12:11.005Z,95.20
2019-05-06T01:14:45.622Z,95.20
2019-05-06T01:17:16.145Z,95.20
2019-05-06T01:19:46.976Z,95.20
2019-05-06T01:22:17.348Z,95.30
2019-05-06T01:24:47.648Z,95.20
2019-05-06T01:27:18.006Z,95.40
2019-05-06T01:29:48.301Z,95.30
2019-05-06T01:32:18.650Z,95.40
2019-05-06T01:34:49.090Z,95.40
2019-05-06T01:37:19.517Z,95.60
2019-05-06T01:40:08.870Z,95.50
2019-05-06T01:42:44.682Z,95.50
2019-05-06T01:45:15.741Z,95.70
2019-05-06T01:47:46.237Z,95.60
2019-05-06T01:50:16.767Z,95.60
2019-05-06T01:52:47.090Z,95.60
2019-05-06T01:55:17.450Z,95.50
2019-05-06T01:57:47.777Z,95.50
2019-05-06T02:00:18.551Z,95.40
2019-05-06T02:02:48.857Z,95.50
2019-05-06T02:05:19.302Z,95.70
2019-05-06T02:07:49.654Z,96.10
2019-05-06T02:10:19.961Z,95.80
2019-05-06T02:12:50.345Z,95.80
2019-05-06T02:15:20.644Z,95.90
2019-05-06T02:17:50.937Z,95.80
2019-05-06T02:20:21.342Z,96.00
2019-05-06T02:23:19.852Z,96.00
2019-05-06T02:25:53.992Z,96.10
2019-05-06T02:28:24.341Z,96.10
2019-05-06T02:31:14.779Z,96.20
2019-05-06T02:34:06.740Z,96.20
2019-05-06T02:36:47.746Z,96.50
2019-05-06T02:39:18.107Z,96.10
2019-05-06T02:41:48.462Z,96.10
2019-05-06T02:44:18.782Z,96.20
2019-05-06T02:46:53.490Z,96.10
2019-05-06T02:49:32.990Z,96.30
2019-05-06T02:52:03.405Z,96.30
2019-05-06T02:54:34.709Z,96.20
2019-05-06T02:57:05.259Z,96.10
2019-05-06T02:59:35.860Z,96.10
2019-05-06T03:02:06.222Z,96.20
2019-05-06T03:04:36.510Z,96.20
2019-05-06T03:07:06.902Z,96.10
2019-05-06T03:09:39.097Z,96.10
2019-05-06T03:12:09.403Z,96.20
2019-05-06T03:14:43.472Z,96.40
2019-05-06T03:17:13.982Z,96.30
2019-05-06T03:19:46.184Z,96.40
2019-05-06T03:22:29.367Z,96.50
2019-05-06T03:25:13.065Z,96.40
2019-05-06T03:27:43.871Z,96.40
2019-05-06T03:30:16.518Z,96.80
2019-05-06T03:33:21.096Z,96.80
2019-05-06T03:35:33.219Z,97.00
2019-05-06T03:37:53.313Z,96.90
2019-05-06T03:40:23.174Z,97.00
2019-05-06T03:42:53.873Z,97.20
2019-05-06T03:45:35.056Z,97.20
2019-05-06T03:48:13.435Z,97.30
2019-05-06T03:50:44.221Z,97.40
2019-05-06T03:53:14.674Z,97.40
2019-05-06T03:55:47.085Z,97.70
2019-05-06T03:58:19.379Z,97.40
2019-05-06T04:00:53.138Z,97.40
2019-05-06T04:03:41.981Z,97.30
2019-05-06T04:05:56.509Z,97.40
2019-05-06T04:08:26.863Z,97.20
2019-05-06T04:10:57.777Z,97.40
2019-05-06T04:13:28.647Z,97.40
2019-05-06T04:16:34.023Z,97.50
2019-05-06T04:19:13.071Z,97.40
2019-05-06T04:21:53.468Z,97.50
2019-05-06T04:24:48.967Z,97.40
2019-05-06T04:27:38.987Z,97.20
2019-05-06T04:30:09.414Z,97.20
2019-05-06T04:32:43.446Z,97.10
2019-05-06T04:35:17.334Z,97.20
2019-05-06T04:37:48.554Z,97.20
2019-05-06T04:40:19.246Z,97.30
2019-05-06T04:42:52.504Z,97.50
2019-05-06T04:45:23.560Z,97.50
2019-05-06T04:47:54.053Z,97.30
2019-05-06T04:50:24.588Z,97.40
2019-05-06T04:53:05.385Z,97.50
2019-05-06T04:55:37.058Z,97.50
2019-05-06T04:58:07.622Z,97.40
2019-05-06T05:00:38.960Z,97.40
2019-05-06T05:03:09.293Z,97.20
2019-05-06T05:05:39.662Z,97.10
2019-05-06T05:08:09.962Z,96.90
2019-05-06T05:10:52.841Z,96.90
2019-05-06T05:13:33.004Z,97.00
2019-05-06T05:16:33.183Z,97.10
2019-05-06T05:19:06.394Z,97.30
2019-05-06T05:21:37.945Z,97.30
2019-05-06T05:24:08.304Z,97.40
2019-05-06T05:26:39.776Z,97.40
2019-05-06T05:29:12.219Z,97.40
2019-05-06T05:31:43.678Z,97.40
2019-05-06T05:34:14.472Z,97.50
2019-05-06T05:36:44.827Z,97.20
2019-05-06T05:39:15.536Z,97.40
2019-05-06T05:41:45.857Z,97.20
2019-05-06T05:44:20.064Z,97.10
2019-05-06T05:46:52.348Z,97.60
2019-05-06T05:49:36.097Z,97.30
2019-05-06T05:52:06.417Z,97.20
2019-05-06T05:54:36.766Z,97.20
2019-05-06T05:57:06.744Z,97.20
2019-05-06T05:59:37.193Z,97.20
2019-05-06T06:02:07.499Z,97.00
2019-05-06T06:04:53.374Z,97.00
2019-05-06T06:07:12.165Z,96.90
2019-05-06T06:09:52.502Z,97.00
2019-05-06T06:12:23.234Z,97.10
2019-05-06T06:15:16.067Z,97.00
2019-05-06T06:18:05.913Z,97.20
2019-05-06T06:21:17.782Z,97.00
2019-05-06T06:23:42.736Z,96.90
2019-05-06T06:26:13.089Z,97.20
2019-05-06T06:28:43.429Z,97.00
2019-05-06T06:31:35.812Z,97.40
2019-05-06T06:34:13.012Z,97.70
2019-05-06T06:36:52.493Z,97.00
2019-05-06T06:39:25.885Z,97.00
2019-05-06T06:41:56.310Z,96.70
2019-05-06T06:44:30.093Z,96.70
2019-05-06T06:47:02.173Z,97.00
2019-05-06T06:49:32.866Z,96.90
2019-05-06T06:52:05.654Z,97.00
2019-05-06T06:54:35.322Z,96.90
2019-05-06T06:57:21.794Z,96.60
2019-05-06T06:59:56.756Z,96.50
2019-05-06T07:02:33.645Z,96.30
2019-05-06T07:05:23.923Z,96.40
2019-05-06T07:07:47.128Z,96.40
2019-05-06T07:10:34.295Z,96.00
2019-05-06T07:13:05.026Z,96.00
2019-05-06T07:15:35.498Z,95.90
2019-05-06T07:18:06.095Z,95.30
2019-05-06T07:20:43.112Z,95.20
2019-05-06T07:23:26.731Z,94.50
2019-05-06T07:25:57.173Z,94.60
2019-05-06T07:28:27.568Z,94.00
2019-05-06T07:31:13.137Z,93.00
2019-05-06T07:33:29.685Z,92.40
2019-05-06T07:36:02.033Z,92.40
2019-05-06T07:38:32.823Z,92.10
2019-05-06T07:41:09.394Z,91.40
2019-05-06T07:43:58.536Z,92.00
2019-05-06T07:46:47.928Z,91.10
2019-05-06T07:49:18.390Z,90.30
2019-05-06T07:51:48.770Z,90.90
2019-05-06T07:54:19.174Z,89.70
2019-05-06T07:56:49.578Z,86.30
2019-05-06T07:59:22.293Z,87.20
2019-05-06T08:01:53.877Z,84.60
2019-05-06T08:04:23.921Z,86.60
2019-05-06T08:06:54.249Z,85.50
2019-05-06T08:09:24.577Z,83.10
2019-05-06T08:11:54.989Z,84.20
2019-05-06T08:14:27.589Z,81.90
2019-05-06T08:17:02.796Z,80.80
2019-05-06T08:19:33.697Z,80.50
2019-05-06T08:22:08.725Z,80.30
2019-05-06T08:24:41.833Z,80.90
2019-05-06T08:27:12.375Z,79.30
2019-05-06T08:29:43.359Z,79.20
2019-05-06T08:32:14.401Z,79.70
2019-05-06T08:34:45.371Z,79.90
2019-05-06T08:37:33.447Z,79.40
2019-05-06T08:40:06.658Z,78.80
2019-05-06T08:42:38.045Z,79.40
2019-05-06T08:45:08.689Z,80.10
2019-05-06T08:47:39.433Z,79.00
2019-05-06T08:50:21.835Z,78.40
2019-05-06T08:53:13.851Z,78.20
2019-05-06T08:55:45.390Z,79.20
2019-05-06T08:58:15.708Z,79.50
2019-05-06T09:00:55.539Z,78.00
2019-05-06T09:03:25.279Z,78.90
2019-05-06T09:05:55.630Z,79.90
2019-05-06T09:08:26.340Z,80.30
2019-05-06T09:10:56.755Z,79.70
2019-05-06T09:13:27.088Z,78.60
2019-05-06T09:15:57.533Z,78.20
2019-05-06T09:18:27.955Z,79.10
2019-05-06T09:20:58.253Z,78.70
2019-05-06T09:23:28.591Z,78.10
2019-05-06T09:25:59.268Z,78.00
2019-05-06T09:28:36.027Z,76.70
2019-05-06T09:31:14.183Z,74.30
2019-05-06T09:33:50.386Z,73.40
2019-05-06T09:36:22.892Z,73.50
2019-05-06T09:38:53.100Z,73.90
2019-05-06T09:41:23.449Z,74.40
2019-05-06T09:43:53.790Z,74.60
2019-05-06T09:46:24.316Z,70.70
2019-05-06T09:49:05.760Z,71.80
2019-05-06T09:51:36.077Z,73.60
2019-05-06T09:54:23.581Z,71.60
2019-05-06T09:56:58.645Z,70.90
2019-05-06T09:59:29.053Z,72.80
2019-05-06T10:01:59.621Z,70.80
2019-05-06T10:04:29.914Z,70.00
2019-05-06T10:07:02.510Z,68.20
2019-05-06T10:09:32.630Z,69.60
2019-05-06T10:12:05.154Z,69.50
2019-05-06T10:14:35.143Z,69.80
2019-05-06T10:17:05.627Z,70.20
2019-05-06T10:19:36.618Z,70.40
2019-05-06T10:22:06.500Z,70.10
2019-05-06T10:24:36.797Z,70.60
2019-05-06T10:27:06.785Z,70.00
2019-05-06T10:29:48.876Z,69.90
2019-05-06T10:32:34.159Z,71.40
2019-05-06T10:35:05.224Z,71.10
2019-05-06T10:37:45.042Z,69.90
2019-05-06T10:40:22.451Z,70.90
2019-05-06T10:43:02.723Z,70.70
2019-05-06T10:45:33.202Z,70.60
2019-05-06T10:48:03.528Z,71.90
2019-05-06T10:50:38.425Z,71.20
2019-05-06T10:53:23.345Z,69.80
2019-05-06T10:55:55.517Z,69.50
2019-05-06T10:58:26.089Z,70.10
2019-05-06T11:01:24.865Z,69.20
2019-05-06T11:03:55.334Z,68.40
2019-05-06T11:06:25.737Z,69.90
2019-05-06T11:08:56.093Z,68.70
2019-05-06T11:11:36.933Z,67.10
2019-05-06T11:13:58.694Z,65.80
2019-05-06T11:16:33.255Z,65.20
2019-05-06T11:19:05.179Z,65.80
2019-05-06T11:21:36.495Z,66.60
2019-05-06T11:24:12.311Z,66.50
2019-05-06T11:26:45.730Z,65.50
2019-05-06T11:29:22.276Z,65.00
2019-05-06T11:32:07.543Z,65.30
2019-05-06T11:34:55.903Z,66.20
2019-05-06T11:37:46.325Z,66.80
2019-05-06T11:40:06.658Z,65.30
2019-05-06T11:42:37.616Z,64.80
2019-05-06T11:45:08.154Z,65.70
2019-05-06T11:47:38.563Z,67.10
2019-05-06T11:50:12.758Z,66.20
2019-05-06T11:52:43.447Z,66.30
2019-05-06T11:55:27.923Z,66.20
2019-05-06T11:57:47.268Z,66.00
2019-05-06T12:00:23.776Z,65.80
2019-05-06T12:02:53.392Z,64.10
2019-05-06T12:05:24.309Z,63.00
2019-05-06T12:08:04.506Z,64.10
2019-05-06T12:10:27.001Z,64.30
2019-05-06T12:12:57.359Z,63.10
2019-05-06T12:15:27.720Z,62.70
2019-05-06T12:17:59.203Z,60.60
2019-05-06T12:20:29.758Z,59.60
2019-05-06T12:23:03.891Z,59.10
2019-05-06T12:25:32.177Z,59.00
2019-05-06T12:28:03.743Z,58.90
2019-05-06T12:30:34.153Z,58.40
2019-05-06T12:33:33.094Z,59.00
2019-05-06T12:36:12.843Z,57.10
2019-05-06T12:39:06.338Z,56.60
2019-05-06T12:41:36.154Z,58.60
2019-05-06T12:44:06.203Z,58.10
2019-05-06T12:46:39.434Z,57.50
2019-05-06T12:49:09.709Z,58.30
2019-05-06T12:51:40.194Z,57.70
2019-05-06T12:54:12.739Z,58.10
2019-05-06T12:56:42.676Z,56.70
2019-05-06T12:59:13.097Z,57.20
2019-05-06T13:01:45.406Z,57.60
2019-05-06T13:04:15.454Z,58.00
2019-05-06T13:06:46.360Z,58.10
2019-05-06T13:09:16.871Z,58.30
2019-05-06T13:11:47.149Z,58.30
2019-05-06T13:14:17.550Z,57.80
2019-05-06T13:16:47.969Z,58.10
2019-05-06T13:19:18.829Z,58.70
2019-05-06T13:21:49.894Z,59.30
2019-05-06T13:24:22.430Z,59.40
2019-05-06T13:26:52.906Z,59.00
2019-05-06T13:29:27.577Z,59.30
2019-05-06T13:31:57.995Z,59.40
2019-05-06T13:34:28.875Z,59.50
2019-05-06T13:36:59.504Z,59.70
2019-05-06T13:39:32.886Z,59.80
2019-05-06T13:42:02.494Z,59.40
2019-05-06T13:44:32.974Z,58.90
2019-05-06T13:47:03.981Z,59.20
2019-05-06T13:49:54.844Z,59.40
2019-05-06T13:52:26.661Z,58.10
2019-05-06T13:54:57.043Z,57.60
2019-05-06T13:57:29.081Z,56.90
2019-05-06T13:59:59.427Z,57.10
2019-05-06T14:02:53.199Z,57.40
2019-05-06T14:05:24.161Z,57.70
2019-05-06T14:07:54.457Z,57.90
2019-05-06T14:10:25.035Z,57.90
2019-05-06T14:12:55.386Z,57.90
2019-05-06T14:15:25.778Z,57.80
2019-05-06T14:17:56.133Z,57.50
2019-05-06T14:20:26.438Z,57.40
2019-05-06T14:22:56.761Z,58.00
2019-05-06T14:25:44.729Z,56.80
2019-05-06T14:28:43.206Z,56.20
2019-05-06T14:31:32.803Z,57.00
2019-05-06T14:34:03.412Z,56.80
2019-05-06T14:36:33.782Z,56.30
2019-05-06T14:39:07.189Z,57.00
2019-05-06T14:41:39.199Z,55.50
2019-05-06T14:44:10.241Z,56.20
2019-05-06T14:47:02.644Z,55.90
2019-05-06T14:49:32.983Z,56.40
2019-05-06T14:52:03.531Z,55.30
2019-05-06T14:54:38.461Z,55.30
2019-05-06T14:57:13.065Z,56.60
2019-05-06T14:59:43.475Z,56.30
2019-05-06T15:02:13.882Z,56.30
2019-05-06T15:04:44.176Z,56.70
2019-05-06T15:07:14.521Z,56.00
2019-05-06T15:09:58.013Z,55.80
2019-05-06T15:12:16.844Z,56.10
2019-05-06T15:14:47.178Z,57.10
2019-05-06T15:17:17.472Z,56.80
2019-05-06T15:19:47.749Z,57.10
2019-05-06T15:22:18.102Z,58.10
2019-05-06T15:24:48.614Z,59.20
2019-05-06T15:27:18.901Z,60.10
2019-05-06T15:29:53.173Z,61.90
2019-05-06T15:32:27.927Z,64.20
2019-05-06T15:35:12.969Z,65.50
2019-05-06T15:37:49.869Z,65.90
2019-05-06T15:40:32.071Z,66.70
2019-05-06T15:42:54.673Z,67.10
2019-05-06T15:45:25.049Z,68.10
2019-05-06T15:47:55.453Z,67.80
2019-05-06T15:50:25.828Z,68.60
2019-05-06T15:52:56.185Z,69.50
2019-05-06T15:55:26.493Z,69.70
2019-05-06T15:57:56.797Z,69.80
2019-05-06T16:00:27.190Z,69.60
2019-05-06T16:02:57.593Z,69.60
2019-05-06T16:05:27.899Z,69.90
2019-05-06T16:07:58.429Z,69.10
2019-05-06T16:10:28.749Z,68.80
2019-05-06T16:12:59.208Z,68.00
2019-05-06T16:15:33.313Z,68.20
2019-05-06T16:18:04.401Z,67.60
2019-05-06T16:20:35.902Z,66.60
2019-05-06T16:23:16.086Z,63.80
2019-05-06T16:25:47.195Z,64.20
2019-05-06T16:28:18.649Z,63.00
2019-05-06T16:30:50.259Z,63.50
2019-05-06T16:33:23.669Z,62.70
2019-05-06T16:35:54.827Z,62.30
2019-05-06T16:38:32.130Z,62.70
2019-05-06T16:41:12.348Z,61.40
2019-05-06T16:43:37.147Z,62.70
2019-05-06T16:46:07.768Z,63.30
2019-05-06T16:48:39.126Z,61.50
2019-05-06T16:51:12.455Z,60.50
2019-05-06T16:53:45.863Z,59.70
2019-05-06T16:56:23.302Z,57.40
2019-05-06T16:58:56.895Z,58.00
2019-05-06T17:01:28.277Z,57.60
2019-05-06T17:04:15.221Z,58.10
2019-05-06T17:06:46.426Z,57.90
2019-05-06T17:09:23.685Z,58.40
2019-05-06T17:11:51.249Z,59.00
2019-05-06T17:14:22.200Z,58.70
2019-05-06T17:16:57.690Z,58.60
2019-05-06T17:19:28.221Z,57.30
2019-05-06T17:21:58.612Z,57.40
2019-05-06T17:24:29.845Z,57.50
2019-05-06T17:27:02.615Z,58.20
2019-05-06T17:30:07.884Z,58.60
2019-05-06T17:32:42.279Z,58.80
2019-05-06T17:35:12.966Z,59.00
2019-05-06T17:37:53.645Z,59.20
2019-05-06T17:40:24.150Z,59.10
2019-05-06T17:42:54.559Z,59.40
2019-05-06T17:45:58.270Z,59.80
2019-05-06T17:48:27.563Z,60.20
2019-05-06T17:51:10.167Z,60.40
2019-05-06T17:53:42.616Z,60.70
2019-05-06T17:56:13.133Z,61.30
2019-05-06T17:58:43.437Z,61.20
2019-05-06T18:01:15.548Z,61.70
2019-05-06T18:03:45.856Z,63.50
2019-05-06T18:06:16.242Z,62.90
2019-05-06T18:08:46.664Z,63.40
2019-05-06T18:11:16.981Z,63.80
2019-05-06T18:13:47.290Z,64.10
2019-05-06T18:16:17.601Z,64.80
2019-05-06T18:18:48.071Z,64.90
2019-05-06T18:21:18.478Z,64.80
2019-05-06T18:23:49.652Z,65.00
2019-05-06T18:26:22.763Z,65.60
2019-05-06T18:28:52.816Z,65.90
2019-05-06T18:31:23.317Z,65.90
2019-05-06T18:33:53.633Z,67.30
2019-05-06T18:36:24.299Z,66.20
2019-05-06T18:38:54.729Z,65.80
2019-05-06T18:41:25.155Z,66.10
2019-05-06T18:43:55.686Z,66.50
2019-05-06T18:46:27.344Z,66.60
2019-05-06T18:48:57.549Z,67.10
2019-05-06T18:51:27.867Z,67.10
2019-05-06T18:53:59.600Z,67.00
2019-05-06T18:56:32.314Z,67.10
2019-05-06T18:59:02.905Z,67.30
2019-05-06T19:01:33.392Z,67.40
2019-05-06T19:04:18.109Z,67.80
2019-05-06T19:06:48.420Z,67.40
2019-05-06T19:09:26.850Z,67.90
2019-05-06T19:11:57.519Z,68.20
2019-05-06T19:14:27.717Z,68.40
2019-05-06T19:16:59.043Z,68.80
2019-05-06T19:19:34.268Z,69.00
2019-05-06T19:22:03.589Z,69.20
2019-05-06T19:24:34.246Z,69.50
2019-05-06T19:27:07.405Z,69.50
2019-05-06T19:29:38.765Z,70.10
2019-05-06T19:32:09.228Z,70.60
2019-05-06T19:34:42.283Z,72.00
2019-05-06T19:37:13.220Z,73.00
2019-05-06T19:39:45.015Z,74.10
2019-05-06T19:42:15.304Z,75.70
2019-05-06T19:44:45.647Z,76.80
2019-05-06T19:47:15.993Z,78.60
2019-05-06T19:49:46.352Z,81.30
2019-05-06T19:52:16.724Z,83.40
2019-05-06T19:54:47.678Z,85.10
2019-05-06T19:57:18.488Z,87.90
2019-05-06T19:59:52.000Z,88.60
2019-05-06T20:02:25.214Z,90.50
2019-05-06T20:04:57.977Z,90.20
2019-05-06T20:07:43.841Z,90.80
2019-05-06T20:10:33.431Z,91.00
2019-05-06T20:13:05.440Z,91.10
2019-05-06T20:15:37.289Z,91.90
2019-05-06T20:18:09.253Z,91.50
2019-05-06T20:20:42.350Z,91.70
2019-05-06T20:23:12.791Z,91.70
2019-05-06T20:25:44.876Z,91.60
2019-05-06T20:28:15.147Z,91.60
2019-05-06T20:30:45.612Z,91.80
2019-05-06T20:33:15.966Z,91.60
2019-05-06T20:35:46.285Z,91.60
2019-05-06T20:38:16.609Z,91.80
2019-05-06T20:40:46.961Z,91.80
2019-05-06T20:43:20.605Z,92.00
2019-05-06T20:45:49.472Z,92.00
2019-05-06T20:48:19.773Z,92.20
2019-05-06T20:50:52.218Z,92.20
2019-05-06T20:53:23.228Z,92.30
2019-05-06T20:55:53.759Z,92.30
2019-05-06T20:58:24.138Z,92.90
2019-05-06T21:00:54.539Z,92.50
2019-05-06T21:03:24.935Z,92.90
2019-05-06T21:05:55.274Z,92.40
2019-05-06T21:08:25.581Z,92.40
2019-05-06T21:10:55.937Z,92.40
2019-05-06T21:13:31.878Z,92.60
2019-05-06T21:15:58.305Z,92.70
2019-05-06T21:18:28.639Z,92.80
2019-05-06T21:20:58.981Z,92.80
2019-05-06T21:23:29.301Z,92.80
2019-05-06T21:25:59.685Z,93.10
2019-05-06T21:28:29.998Z,93.10
2019-05-06T21:31:00.316Z,93.10
2019-05-06T21:33:32.811Z,93.20
2019-05-06T21:36:03.043Z,93.20
2019-05-06T21:38:33.521Z,93.30
2019-05-06T21:41:03.869Z,93.30
2019-05-06T21:43:45.982Z,93.30
2019-05-06T21:46:06.089Z,93.70
2019-05-06T21:48:36.502Z,93.80
2019-05-06T21:51:07.059Z,93.80
2019-05-06T21:53:39.206Z,94.20
2019-05-06T21:56:09.514Z,93.80
2019-05-06T21:58:40.358Z,93.80
2019-05-06T22:01:10.869Z,93.80
2019-05-06T22:03:43.386Z,93.70
2019-05-06T22:06:13.407Z,94.10
2019-05-06T22:08:43.722Z,93.80
2019-05-06T22:11:14.032Z,93.60
2019-05-06T22:13:57.775Z,93.40
2019-05-06T22:16:16.329Z,93.40
2019-05-06T22:18:46.637Z,93.60
2019-05-06T22:21:22.525Z,93.80
2019-05-06T22:24:12.906Z,93.80
2019-05-06T22:26:43.212Z,93.80
2019-05-06T22:29:13.513Z,93.80
2019-05-06T22:31:44.032Z,93.70
2019-05-06T22:34:15.782Z,93.40
2019-05-06T22:36:46.284Z,93.50
2019-05-06T22:39:16.616Z,93.50
2019-05-06T22:41:46.885Z,93.50
2019-05-06T22:44:17.292Z,93.50
2019-05-06T22:46:47.616Z,93.50
2019-05-06T22:49:17.972Z,93.40
2019-05-06T22:51:48.282Z,93.50
2019-05-06T22:54:18.835Z,93.60
2019-05-06T22:56:49.258Z,93.50
2019-05-06T22:59:19.618Z,93.60
2019-05-06T23:02:07.745Z,93.70
2019-05-06T23:04:38.960Z,93.80
2019-05-06T23:07:09.264Z,93.70
2019-05-06T23:09:39.721Z,93.70
2019-05-06T23:12:12.345Z,93.40
2019-05-06T23:14:42.840Z,93.50
2019-05-06T23:17:13.252Z,93.50
2019-05-06T23:19:43.585Z,93.60
2019-05-06T23:22:13.960Z,93.60
2019-05-06T23:24:44.298Z,93.80
2019-05-06T23:27:14.652Z,93.90
2019-05-06T23:29:45.150Z,94.20
2019-05-06T23:32:15.618Z,94.30
2019-05-06T23:34:45.936Z,94.30
2019-05-06T23:37:19.816Z,94.30
2019-05-06T23:40:32.926Z,94.30
2019-05-06T23:43:39.012Z,94.30
2019-05-06T23:46:45.463Z,94.40
2019-05-06T23:49:52.713Z,94.40
2019-05-06T23:52:59.237Z,94.40
2019-05-06T23:56:05.657Z,94.50
2019-05-06T23:58:35.967Z,94.60
